createdAt,value
2022-11-14T00:00:10.676Z,5.85
2022-11-14T00:02:36.969Z,5.88
2022-11-14T00:05:00.672Z,5.87
2022-11-14T00:07:23.928Z,5.92
2022-11-14T00:09:47.313Z,5.89
2022-11-14T00:12:10.674Z,5.87
2022-11-14T00:14:33.651Z,5.87
2022-11-14T00:16:57.033Z,5.92
2022-11-14T00:19:23.028Z,5.97
2022-11-14T00:21:46.598Z,5.99
2022-11-14T00:24:10.345Z,6.01
2022-11-14T00:26:33.895Z,6.03
2022-11-14T00:28:57.903Z,6.02
2022-11-14T00:31:21.090Z,6.00
2022-11-14T00:33:44.320Z,5.98
2022-11-14T00:36:10.757Z,5.98
2022-11-14T00:38:34.141Z,5.98
2022-11-14T00:40:57.491Z,5.98
2022-11-14T00:43:20.774Z,5.96
2022-11-14T00:45:46.616Z,5.99
2022-11-14T00:48:09.771Z,5.98
2022-11-14T00:50:33.188Z,5.98
2022-11-14T00:52:59.115Z,5.98
2022-11-14T00:55:22.578Z,6.01
2022-11-14T00:57:45.900Z,6.05
2022-11-14T01:00:10.887Z,6.09
2022-11-14T01:02:34.073Z,6.12
2022-11-14T01:04:57.544Z,6.15
2022-11-14T01:07:20.956Z,6.16
2022-11-14T01:09:46.624Z,6.13
2022-11-14T01:12:10.009Z,6.04
2022-11-14T01:14:33.054Z,5.97
2022-11-14T01:16:56.416Z,5.94
2022-11-14T01:19:19.744Z,5.95
2022-11-14T01:21:42.966Z,5.96
2022-11-14T01:24:06.751Z,5.93
2022-11-14T01:26:32.788Z,5.92
2022-11-14T01:28:56.281Z,5.84
2022-11-14T01:31:22.429Z,5.79
2022-11-14T01:33:45.703Z,5.72
2022-11-14T01:36:10.052Z,5.66
2022-11-14T01:38:33.633Z,5.67
2022-11-14T01:40:57.338Z,5.68
2022-11-14T01:43:31.172Z,5.76
2022-11-14T01:45:57.262Z,5.80
2022-11-14T01:48:24.202Z,5.82
2022-11-14T01:50:47.350Z,5.87
2022-11-14T01:53:10.901Z,5.89
2022-11-14T01:55:35.137Z,5.85
2022-11-14T01:58:00.192Z,5.78
2022-11-14T02:00:26.280Z,5.76
2022-11-14T02:02:49.924Z,5.72
2022-11-14T02:05:16.027Z,5.68
2022-11-14T02:07:42.890Z,5.65
2022-11-14T02:10:09.738Z,5.58
2022-11-14T02:12:33.212Z,5.58
2022-11-14T02:14:59.045Z,5.46
2022-11-14T02:17:30.907Z,5.33
2022-11-14T02:20:00.851Z,5.31
2022-11-14T02:22:30.648Z,5.27
2022-11-14T02:24:54.015Z,5.22
2022-11-14T02:27:19.207Z,5.20
2022-11-14T02:29:42.708Z,5.14
2022-11-14T02:32:10.632Z,5.11
2022-11-14T02:34:34.473Z,5.09
2022-11-14T02:36:58.267Z,5.11
2022-11-14T02:39:24.406Z,5.11
2022-11-14T02:41:48.447Z,5.04
2022-11-14T02:44:11.749Z,5.01
2022-11-14T02:46:35.204Z,4.94
2022-11-14T02:48:58.443Z,4.90
2022-11-14T02:51:22.006Z,4.94
2022-11-14T02:53:45.142Z,4.95
2022-11-14T02:56:11.125Z,4.99
2022-11-14T02:58:34.227Z,4.97
2022-11-14T03:01:19.164Z,4.99
2022-11-14T03:03:41.254Z,4.97
2022-11-14T03:06:05.980Z,4.99
2022-11-14T03:08:29.365Z,4.96
2022-11-14T03:10:53.270Z,4.97
2022-11-14T03:13:19.150Z,4.97
2022-11-14T03:15:42.612Z,4.96
2022-11-14T03:18:05.583Z,4.95
2022-11-14T03:20:28.973Z,4.90
2022-11-14T03:22:52.712Z,4.87
2022-11-14T03:25:16.225Z,4.86
2022-11-14T03:27:39.562Z,4.84
2022-11-14T03:30:05.800Z,4.83
2022-11-14T03:32:28.999Z,4.84
2022-11-14T03:34:52.476Z,4.82
2022-11-14T03:37:15.687Z,4.81
2022-11-14T03:39:38.843Z,4.75
2022-11-14T03:42:02.099Z,4.72
2022-11-14T03:44:25.158Z,4.73
2022-11-14T03:46:50.815Z,4.76
2022-11-14T03:49:14.225Z,4.80
2022-11-14T03:51:38.238Z,4.82
2022-11-14T03:54:01.427Z,4.78
2022-11-14T03:56:24.798Z,4.71
2022-11-14T03:58:48.056Z,4.71
2022-11-14T04:01:11.665Z,4.63
2022-11-14T04:03:37.667Z,4.64
2022-11-14T04:06:01.023Z,4.63
2022-11-14T04:08:24.366Z,4.61
2022-11-14T04:10:50.639Z,4.58
2022-11-14T04:13:14.068Z,4.53
2022-11-14T04:15:37.596Z,4.48
2022-11-14T04:18:00.652Z,4.43
2022-11-14T04:20:26.402Z,4.45
2022-11-14T04:22:49.773Z,4.40
2022-11-14T04:25:13.209Z,4.36
2022-11-14T04:27:36.813Z,4.37
2022-11-14T04:29:59.783Z,4.37
2022-11-14T04:32:22.933Z,4.40
2022-11-14T04:34:46.361Z,4.43
2022-11-14T04:37:14.959Z,4.45
2022-11-14T04:39:38.156Z,4.44
2022-11-14T04:42:01.323Z,4.49
2022-11-14T04:44:24.629Z,4.51
2022-11-14T04:46:48.127Z,4.52
2022-11-14T04:49:11.612Z,4.50
2022-11-14T04:51:35.263Z,4.50
2022-11-14T04:54:01.127Z,4.48
2022-11-14T04:56:25.584Z,4.46
2022-11-14T04:58:48.785Z,4.44
2022-11-14T05:01:12.854Z,4.39
2022-11-14T05:03:36.388Z,4.32
2022-11-14T05:06:03.614Z,4.31
2022-11-14T05:08:27.039Z,4.26
2022-11-14T05:10:53.440Z,4.24
2022-11-14T05:13:16.804Z,4.26
2022-11-14T05:15:40.289Z,4.24
2022-11-14T05:18:03.850Z,4.22
2022-11-14T05:20:27.251Z,4.18
2022-11-14T05:22:50.616Z,4.16
2022-11-14T05:25:14.142Z,4.15
2022-11-14T05:27:40.420Z,4.13
2022-11-14T05:30:03.687Z,4.12
2022-11-14T05:32:27.368Z,4.15
2022-11-14T05:34:50.512Z,4.17
2022-11-14T05:37:13.978Z,4.16
2022-11-14T05:39:37.549Z,4.18
2022-11-14T05:42:00.653Z,4.20
2022-11-14T05:44:26.865Z,4.21
2022-11-14T05:46:50.126Z,4.18
2022-11-14T05:49:15.852Z,4.15
2022-11-14T05:51:42.629Z,4.15
2022-11-14T05:54:05.866Z,4.15
2022-11-14T05:56:28.915Z,4.17
2022-11-14T05:58:52.200Z,4.16
2022-11-14T06:01:21.409Z,4.16
2022-11-14T06:03:46.493Z,4.17
2022-11-14T06:06:11.962Z,4.14
2022-11-14T06:08:36.037Z,4.13
2022-11-14T06:10:59.460Z,4.12
2022-11-14T06:13:24.279Z,4.18
2022-11-14T06:15:47.702Z,4.22
2022-11-14T06:18:13.836Z,4.22
2022-11-14T06:20:37.427Z,4.26
2022-11-14T06:23:00.725Z,4.30
2022-11-14T06:25:23.940Z,4.30
2022-11-14T06:27:46.957Z,4.35
2022-11-14T06:30:12.203Z,4.35
2022-11-14T06:32:35.447Z,4.32
2022-11-14T06:35:01.357Z,4.32
2022-11-14T06:37:24.575Z,4.36
2022-11-14T06:39:47.803Z,4.35
2022-11-14T06:42:11.163Z,4.42
2022-11-14T06:44:34.339Z,4.46
2022-11-14T06:46:57.712Z,4.44
2022-11-14T06:49:21.448Z,4.52
2022-11-14T06:51:47.322Z,4.57
2022-11-14T06:54:10.673Z,4.54
2022-11-14T06:56:34.178Z,4.53
2022-11-14T06:58:57.268Z,4.47
2022-11-14T07:01:24.246Z,4.45
2022-11-14T07:03:48.123Z,4.41
2022-11-14T07:06:12.608Z,4.46
2022-11-14T07:08:38.590Z,4.46
2022-11-14T07:11:06.348Z,4.48
2022-11-14T07:13:29.515Z,4.50
2022-11-14T07:15:54.131Z,4.52
2022-11-14T07:18:17.732Z,4.57
2022-11-14T07:20:41.298Z,4.54
2022-11-14T07:23:04.557Z,4.57
2022-11-14T07:25:30.416Z,4.62
2022-11-14T07:27:53.764Z,4.64
2022-11-14T07:30:18.463Z,4.63
2022-11-14T07:32:41.581Z,4.65
2022-11-14T07:35:04.977Z,4.62
2022-11-14T07:37:28.333Z,4.61
2022-11-14T07:39:51.479Z,4.60
2022-11-14T07:42:17.338Z,4.62
2022-11-14T07:44:40.694Z,4.59
2022-11-14T07:47:04.222Z,4.60
2022-11-14T07:49:27.268Z,4.59
2022-11-14T07:51:50.439Z,4.65
2022-11-14T07:54:14.398Z,4.70
2022-11-14T07:56:37.848Z,4.78
2022-11-14T07:59:03.800Z,4.86
2022-11-14T08:01:27.219Z,4.90
2022-11-14T08:03:50.782Z,4.89
2022-11-14T08:06:16.087Z,4.97
2022-11-14T08:08:40.231Z,5.05
2022-11-14T08:11:04.522Z,5.11
2022-11-14T08:13:33.098Z,5.19
2022-11-14T08:16:00.128Z,5.22
2022-11-14T08:18:22.909Z,5.23
2022-11-14T08:20:46.264Z,5.32
2022-11-14T08:23:09.942Z,5.39
2022-11-14T08:25:33.430Z,5.43
2022-11-14T08:27:57.095Z,5.44
2022-11-14T08:30:20.308Z,5.53
2022-11-14T08:32:45.999Z,5.61
2022-11-14T08:35:10.264Z,5.63
2022-11-14T08:37:34.062Z,5.67
2022-11-14T08:39:57.405Z,5.72
2022-11-14T08:42:20.829Z,5.74
2022-11-14T08:44:47.895Z,5.81
2022-11-14T08:47:14.407Z,5.86
2022-11-14T08:49:40.301Z,5.94
2022-11-14T08:52:03.956Z,5.95
2022-11-14T08:54:27.143Z,6.00
2022-11-14T08:56:50.577Z,6.07
2022-11-14T08:59:13.730Z,6.18
2022-11-14T09:01:37.380Z,6.25
2022-11-14T09:04:00.895Z,6.33
2022-11-14T09:06:27.360Z,6.43
2022-11-14T09:08:50.838Z,6.51
2022-11-14T09:11:18.915Z,6.58
2022-11-14T09:13:42.652Z,6.72
2022-11-14T09:16:05.835Z,6.80
2022-11-14T09:18:29.435Z,6.86
2022-11-14T09:20:53.076Z,6.93
2022-11-14T09:23:21.997Z,6.97
2022-11-14T09:25:46.197Z,7.10
2022-11-14T09:28:10.521Z,7.17
2022-11-14T09:30:33.831Z,7.25
2022-11-14T09:33:06.935Z,7.33
2022-11-14T09:35:34.301Z,7.43
2022-11-14T09:38:02.903Z,7.47
2022-11-14T09:40:28.743Z,7.51
2022-11-14T09:43:08.739Z,7.62
2022-11-14T09:45:33.059Z,7.72
2022-11-14T09:48:02.637Z,7.81
2022-11-14T09:50:31.615Z,7.87
2022-11-14T09:52:58.626Z,7.96
2022-11-14T09:55:25.654Z,8.07
2022-11-14T09:57:51.768Z,8.16
2022-11-14T10:00:17.103Z,8.19
2022-11-14T10:02:48.436Z,8.25
2022-11-14T10:05:26.391Z,8.34
2022-11-14T10:08:05.056Z,8.48
2022-11-14T10:10:46.419Z,8.60
2022-11-14T10:13:26.755Z,8.74
2022-11-14T10:15:57.380Z,8.84
2022-11-14T10:18:39.321Z,8.93
2022-11-14T10:21:14.609Z,9.03
2022-11-14T10:23:52.648Z,9.16
2022-11-14T10:26:21.714Z,9.30
2022-11-14T10:29:12.007Z,9.43
2022-11-14T10:31:46.642Z,9.45
2022-11-14T10:34:16.050Z,9.48
2022-11-14T10:36:51.535Z,9.60
2022-11-14T10:39:19.748Z,9.59
2022-11-14T10:41:57.984Z,9.71
2022-11-14T10:44:32.704Z,9.72
2022-11-14T10:47:01.032Z,9.75
2022-11-14T10:49:26.125Z,9.86
2022-11-14T10:51:54.840Z,10.00
2022-11-14T10:54:24.811Z,10.12
2022-11-14T10:56:52.622Z,10.25
2022-11-14T10:59:18.994Z,10.37
2022-11-14T11:01:47.250Z,10.47
2022-11-14T11:04:24.505Z,10.57
2022-11-14T11:06:48.099Z,10.69
2022-11-14T11:09:28.500Z,10.83
2022-11-14T11:11:57.940Z,10.93
2022-11-14T11:14:22.459Z,11.03
2022-11-14T11:16:49.558Z,11.15
2022-11-14T11:19:26.630Z,11.27
2022-11-14T11:21:52.827Z,11.32
2022-11-14T11:24:33.354Z,11.39
2022-11-14T11:27:15.964Z,11.40
2022-11-14T11:29:39.360Z,11.44
2022-11-14T11:32:05.343Z,11.54
2022-11-14T11:34:31.440Z,11.57
2022-11-14T11:37:00.517Z,11.65
2022-11-14T11:39:29.349Z,11.71
2022-11-14T11:42:11.065Z,11.74
2022-11-14T11:44:40.662Z,11.83
2022-11-14T11:47:14.153Z,11.89
2022-11-14T11:49:44.684Z,11.92
2022-11-14T11:52:16.496Z,11.89
2022-11-14T11:54:55.601Z,11.95
2022-11-14T11:57:22.184Z,11.92
2022-11-14T11:59:51.269Z,11.93
2022-11-14T12:02:25.897Z,12.01
2022-11-14T12:04:49.709Z,12.05
2022-11-14T12:07:18.558Z,12.13
2022-11-14T12:10:09.441Z,12.19
2022-11-14T12:12:44.444Z,12.24
2022-11-14T12:15:19.789Z,12.29
2022-11-14T12:18:23.871Z,12.30
2022-11-14T12:21:14.614Z,12.24
2022-11-14T12:24:13.814Z,12.29
2022-11-14T12:27:00.004Z,12.34
2022-11-14T12:29:43.222Z,12.40
2022-11-14T12:32:09.779Z,12.40
2022-11-14T12:34:41.524Z,12.45
2022-11-14T12:37:11.920Z,12.44
2022-11-14T12:39:35.684Z,12.41
2022-11-14T12:42:05.469Z,12.42
2022-11-14T12:44:38.103Z,12.47
2022-11-14T12:47:22.181Z,12.48
2022-11-14T12:50:28.784Z,12.51
2022-11-14T12:52:55.767Z,12.50
2022-11-14T12:55:49.260Z,12.49
2022-11-14T12:58:14.571Z,12.51
2022-11-14T13:00:44.588Z,12.52
2022-11-14T13:03:34.656Z,12.56
2022-11-14T13:06:05.646Z,12.58
2022-11-14T13:08:50.255Z,12.60
2022-11-14T13:11:51.917Z,12.61
2022-11-14T13:14:27.595Z,12.63
2022-11-14T13:17:03.439Z,12.62
2022-11-14T13:19:39.310Z,12.63
2022-11-14T13:22:37.213Z,12.59
2022-11-14T13:25:20.389Z,12.57
2022-11-14T13:30:57.297Z,12.56
2022-11-14T13:33:44.739Z,12.58
2022-11-14T13:36:09.957Z,12.53
2022-11-14T13:39:10.573Z,12.51
2022-11-14T13:42:02.929Z,12.52
2022-11-14T13:44:54.852Z,12.49
2022-11-14T13:47:36.192Z,12.52
2022-11-14T13:50:06.182Z,12.50
2022-11-14T13:52:33.459Z,12.48
2022-11-14T13:54:59.928Z,12.48
2022-11-14T13:57:34.454Z,12.49
2022-11-14T14:00:18.362Z,12.48
2022-11-14T14:03:01.298Z,12.46
2022-11-14T14:05:45.212Z,12.48
2022-11-14T14:08:22.660Z,12.48
2022-11-14T14:11:00.498Z,12.46
2022-11-14T14:13:41.834Z,12.46
2022-11-14T14:16:16.963Z,12.45
2022-11-14T14:18:52.371Z,12.44
2022-11-14T14:21:30.353Z,12.43
2022-11-14T14:24:07.239Z,12.44
2022-11-14T14:26:58.082Z,12.42
2022-11-14T14:29:28.106Z,12.39
2022-11-14T14:32:04.706Z,12.35
2022-11-14T14:34:36.179Z,12.36
2022-11-14T14:37:03.976Z,12.30
2022-11-14T14:39:32.014Z,12.30
2022-11-14T14:42:13.911Z,12.26
2022-11-14T14:44:41.667Z,12.25
2022-11-14T14:47:18.898Z,12.20
2022-11-14T14:49:46.096Z,12.15
2022-11-14T14:52:23.246Z,12.11
2022-11-14T14:55:02.351Z,12.12
2022-11-14T14:57:30.270Z,12.07
2022-11-14T15:00:04.203Z,12.05
2022-11-14T15:02:29.052Z,11.97
2022-11-14T15:04:52.643Z,11.97
2022-11-14T15:07:23.389Z,11.97
2022-11-14T15:09:55.130Z,11.94
2022-11-14T15:12:23.547Z,11.95
2022-11-14T15:14:50.978Z,11.97
2022-11-14T15:17:18.826Z,11.93
2022-11-14T15:19:50.767Z,11.92
2022-11-14T15:22:31.828Z,11.91
2022-11-14T15:25:10.042Z,11.89
2022-11-14T15:27:36.777Z,11.89
2022-11-14T15:30:09.272Z,11.90
2022-11-14T15:32:36.464Z,11.91
2022-11-14T15:35:32.227Z,11.94
2022-11-14T15:38:41.934Z,11.91
2022-11-14T15:41:21.704Z,11.86
2022-11-14T15:43:55.392Z,11.82
2022-11-14T15:46:45.541Z,11.78
2022-11-14T15:49:13.902Z,11.69
2022-11-14T15:51:48.927Z,11.63
2022-11-14T15:54:26.872Z,11.56
2022-11-14T15:56:50.411Z,11.54
2022-11-14T15:59:15.829Z,11.52
2022-11-14T16:01:42.050Z,11.49
2022-11-14T16:04:05.626Z,11.46
2022-11-14T16:06:29.235Z,11.47
2022-11-14T16:08:52.561Z,11.46
2022-11-14T16:11:19.290Z,11.47
2022-11-14T16:13:47.157Z,11.44
2022-11-14T16:16:11.718Z,11.41
2022-11-14T16:18:37.418Z,11.39
2022-11-14T16:21:00.919Z,11.34
2022-11-14T16:23:26.978Z,11.31
2022-11-14T16:25:53.506Z,11.24
2022-11-14T16:28:26.866Z,11.20
2022-11-14T16:30:56.274Z,11.18
2022-11-14T16:33:22.185Z,11.14
2022-11-14T16:35:47.885Z,11.13
2022-11-14T16:38:15.145Z,11.08
2022-11-14T16:40:48.908Z,11.04
2022-11-14T16:43:16.623Z,11.07
2022-11-14T16:45:43.171Z,11.05
2022-11-14T16:48:14.238Z,11.03
2022-11-14T16:50:41.851Z,11.02
2022-11-14T16:53:07.885Z,10.99
2022-11-14T16:55:31.230Z,10.94
2022-11-14T16:57:57.945Z,10.87
2022-11-14T17:00:21.243Z,10.85
2022-11-14T17:03:00.246Z,10.84
2022-11-14T17:05:23.467Z,10.83
2022-11-14T17:07:47.403Z,10.83
2022-11-14T17:10:17.237Z,10.81
2022-11-14T17:12:41.658Z,10.76
2022-11-14T17:15:05.169Z,10.73
2022-11-14T17:17:29.358Z,10.72
2022-11-14T17:20:30.503Z,10.71
2022-11-14T17:22:55.157Z,10.63
2022-11-14T17:25:23.598Z,10.62
2022-11-14T17:27:49.684Z,10.59
2022-11-14T17:30:15.006Z,10.58
2022-11-14T17:32:38.627Z,10.55
2022-11-14T17:35:04.368Z,10.56
2022-11-14T17:37:28.164Z,10.57
2022-11-14T17:39:56.105Z,10.53
2022-11-14T17:42:26.467Z,10.52
2022-11-14T17:44:50.534Z,10.50
2022-11-14T17:47:16.439Z,10.49
2022-11-14T17:49:45.373Z,10.48
2022-11-14T17:52:11.811Z,10.48
2022-11-14T17:54:53.866Z,10.42
2022-11-14T17:57:23.456Z,10.41
2022-11-14T17:59:57.285Z,10.41
2022-11-14T18:02:23.174Z,10.36
2022-11-14T18:04:47.226Z,10.34
2022-11-14T18:07:15.685Z,10.31
2022-11-14T18:09:39.284Z,10.28
2022-11-14T18:12:09.157Z,10.25
2022-11-14T18:14:36.076Z,10.22
2022-11-14T18:17:12.937Z,10.18
2022-11-14T18:19:39.148Z,10.17
2022-11-14T18:22:21.969Z,10.15
2022-11-14T18:24:56.039Z,10.10
2022-11-14T18:27:21.795Z,10.05
2022-11-14T18:29:53.359Z,10.03
2022-11-14T18:32:21.499Z,9.98
2022-11-14T18:34:44.547Z,9.96
2022-11-14T18:37:08.156Z,9.93
2022-11-14T18:39:31.733Z,9.92
2022-11-14T18:41:55.281Z,9.87
2022-11-14T18:44:18.644Z,9.84
2022-11-14T18:46:44.741Z,9.79
2022-11-14T18:49:08.275Z,9.71
2022-11-14T18:51:41.916Z,9.69
2022-11-14T18:54:05.474Z,9.69
2022-11-14T18:56:32.040Z,9.68
2022-11-14T18:58:56.981Z,9.67
2022-11-14T19:01:24.928Z,9.64
2022-11-14T19:03:51.063Z,9.62
2022-11-14T19:06:15.971Z,9.59
2022-11-14T19:08:39.729Z,9.54
2022-11-14T19:11:04.320Z,9.52
2022-11-14T19:13:27.449Z,9.45
2022-11-14T19:15:50.556Z,9.43
2022-11-14T19:18:14.005Z,9.41
2022-11-14T19:20:39.929Z,9.39
2022-11-14T19:23:03.544Z,9.37
2022-11-14T19:25:26.988Z,9.39
2022-11-14T19:27:53.128Z,9.39
2022-11-14T19:30:17.575Z,9.35
2022-11-14T19:32:41.012Z,9.30
2022-11-14T19:35:04.772Z,9.27
2022-11-14T19:37:31.460Z,9.27
2022-11-14T19:39:55.624Z,9.21
2022-11-14T19:42:18.917Z,9.21
2022-11-14T19:44:44.917Z,9.20
2022-11-14T19:47:08.445Z,9.21
2022-11-14T19:49:31.703Z,9.22
2022-11-14T19:51:54.987Z,9.21
2022-11-14T19:54:21.071Z,9.23
2022-11-14T19:56:44.432Z,9.18
2022-11-14T19:59:13.775Z,9.16
2022-11-14T20:01:38.307Z,9.14
2022-11-14T20:04:03.383Z,9.12
2022-11-14T20:06:29.238Z,9.14
2022-11-14T20:08:52.977Z,9.09
2022-11-14T20:11:19.601Z,9.12
2022-11-14T20:13:44.474Z,9.11
2022-11-14T20:16:14.761Z,9.03
2022-11-14T20:18:38.377Z,8.98
2022-11-14T20:21:05.560Z,8.99
2022-11-14T20:23:29.544Z,8.96
2022-11-14T20:25:54.993Z,8.97
2022-11-14T20:28:21.511Z,8.97
2022-11-14T20:30:47.814Z,8.98
2022-11-14T20:33:11.720Z,9.00
2022-11-14T20:35:38.204Z,9.02
2022-11-14T20:38:04.484Z,8.97
2022-11-14T20:40:28.197Z,8.96
2022-11-14T20:42:52.116Z,8.96
2022-11-14T20:45:18.210Z,9.01
2022-11-14T20:47:41.697Z,9.01
2022-11-14T20:50:05.376Z,9.00
2022-11-14T20:52:29.045Z,8.97
2022-11-14T20:54:52.824Z,8.96
2022-11-14T20:57:17.293Z,8.93
2022-11-14T20:59:43.979Z,8.89
2022-11-14T21:02:10.382Z,8.89
2022-11-14T21:04:33.989Z,8.88
2022-11-14T21:06:57.849Z,8.88
2022-11-14T21:09:22.193Z,8.91
2022-11-14T21:11:46.759Z,8.90
2022-11-14T21:14:10.326Z,8.91
2022-11-14T21:16:35.472Z,8.91
2022-11-14T21:19:02.349Z,8.90
2022-11-14T21:21:27.779Z,8.85
2022-11-14T21:23:50.931Z,8.85
2022-11-14T21:26:16.496Z,8.85
2022-11-14T21:28:40.829Z,8.84
2022-11-14T21:31:04.217Z,8.84
2022-11-14T21:33:28.824Z,8.83
2022-11-14T21:35:55.320Z,8.84
2022-11-14T21:38:18.790Z,8.86
2022-11-14T21:40:42.181Z,8.85
2022-11-14T21:43:05.760Z,8.84
2022-11-14T21:45:28.964Z,8.81
2022-11-14T21:47:52.274Z,8.79
2022-11-14T21:50:15.790Z,8.77
2022-11-14T21:52:42.130Z,8.75
2022-11-14T21:55:05.310Z,8.73
2022-11-14T21:57:28.577Z,8.71
2022-11-14T21:59:51.988Z,8.71
2022-11-14T22:02:27.918Z,8.75
2022-11-14T22:04:51.378Z,8.73
2022-11-14T22:07:14.712Z,8.73
2022-11-14T22:09:45.184Z,8.71
2022-11-14T22:12:10.594Z,8.72
2022-11-14T22:14:33.821Z,8.72
2022-11-14T22:16:57.948Z,8.73
2022-11-14T22:19:21.694Z,8.73
2022-11-14T22:21:45.269Z,8.70
2022-11-14T22:24:09.182Z,8.68
2022-11-14T22:26:36.546Z,8.69
2022-11-14T22:28:59.843Z,8.68
2022-11-14T22:31:24.744Z,8.68
2022-11-14T22:33:50.295Z,8.67
2022-11-14T22:36:15.247Z,8.64
2022-11-14T22:38:40.089Z,8.64
2022-11-14T22:41:04.075Z,8.60
2022-11-14T22:43:31.144Z,8.61
2022-11-14T22:45:55.263Z,8.63
2022-11-14T22:48:18.508Z,8.62
2022-11-14T22:50:42.014Z,8.65
2022-11-14T22:53:05.164Z,8.66
2022-11-14T22:55:28.821Z,8.68
2022-11-14T22:57:52.177Z,8.70
2022-11-14T23:00:20.742Z,8.73
2022-11-14T23:02:43.973Z,8.71
2022-11-14T23:05:07.832Z,8.71
2022-11-14T23:07:31.197Z,8.75
2022-11-14T23:09:54.830Z,8.73
2022-11-14T23:12:18.768Z,8.73
2022-11-14T23:14:42.439Z,8.73
2022-11-14T23:17:08.258Z,8.68
2022-11-14T23:19:31.697Z,8.68
2022-11-14T23:21:56.868Z,8.70
2022-11-14T23:24:20.308Z,8.67
2022-11-14T23:26:43.589Z,8.64
2022-11-14T23:29:07.682Z,8.64
2022-11-14T23:31:31.352Z,8.63
2022-11-14T23:33:58.883Z,8.59
2022-11-14T23:36:23.176Z,8.55
2022-11-14T23:38:47.001Z,8.51
2022-11-14T23:41:10.721Z,8.46
2022-11-14T23:43:34.136Z,8.45
2022-11-14T23:45:58.067Z,8.46
2022-11-14T23:48:22.788Z,8.44
2022-11-14T23:50:53.471Z,8.46
2022-11-14T23:53:17.185Z,8.43
2022-11-14T23:55:42.149Z,8.41
2022-11-14T23:58:06.113Z,8.44
